createdAt,value
2023-01-13T00:04:59.332Z,99343.59
2023-01-13T00:10:01.184Z,99341.31
2023-01-13T00:15:02.862Z,99325.75
2023-01-13T00:20:05.164Z,99310.56
2023-01-13T00:25:07.311Z,99322.75
2023-01-13T00:30:09.471Z,99326.06
2023-01-13T00:35:11.104Z,99326.75
2023-01-13T00:40:12.999Z,99283.94
2023-01-13T00:45:14.673Z,99251.56
2023-01-13T00:50:16.554Z,99224.53
2023-01-13T00:55:18.123Z,99245.94
2023-01-13T01:00:20.049Z,99258.66
2023-01-13T01:05:21.787Z,99222.06
2023-01-13T01:10:23.495Z,99227.00
2023-01-13T01:15:25.244Z,99246.28
2023-01-13T01:20:26.858Z,99258.97
2023-01-13T01:25:28.444Z,99215.63
2023-01-13T01:30:30.639Z,99241.03
2023-01-13T01:35:32.228Z,99240.75
2023-01-13T01:40:33.947Z,99255.75
2023-01-13T01:45:35.755Z,99201.25
2023-01-13T01:50:39.273Z,99234.28
2023-01-13T01:55:41.416Z,99210.94
2023-01-13T02:00:43.178Z,99186.78
2023-01-13T02:05:44.886Z,99221.78
2023-01-13T02:10:53.515Z,99189.88
2023-01-13T02:16:12.096Z,99177.50
2023-01-13T02:21:25.500Z,99141.69
2023-01-13T02:26:59.185Z,99160.78
2023-01-13T02:32:12.812Z,99118.34
2023-01-13T02:37:27.595Z,99140.28
2023-01-13T02:42:52.410Z,99146.38
2023-01-13T02:47:56.858Z,99158.38
2023-01-13T02:53:03.872Z,99176.06
2023-01-13T02:58:08.458Z,99147.34
2023-01-13T03:03:10.039Z,99172.88
2023-01-13T03:08:17.878Z,99169.22
2023-01-13T03:13:53.689Z,99106.50
2023-01-13T03:19:13.616Z,99131.78
2023-01-13T03:24:28.875Z,99134.16
2023-01-13T03:29:41.407Z,99128.03
2023-01-13T03:34:49.209Z,99077.91
2023-01-13T03:39:57.449Z,99068.06
2023-01-13T03:45:14.616Z,99120.84
2023-01-13T03:50:24.423Z,99094.38
2023-01-13T03:55:35.708Z,99150.22
2023-01-13T04:00:44.137Z,99134.41
2023-01-13T04:05:51.494Z,99129.47
2023-01-13T04:10:55.985Z,99077.38
2023-01-13T04:15:59.825Z,99095.94
2023-01-13T04:21:02.195Z,99072.75
2023-01-13T04:26:04.955Z,99135.16
2023-01-13T04:31:06.581Z,99087.88
2023-01-13T04:36:08.527Z,99087.94
2023-01-13T04:41:10.187Z,99087.25
2023-01-13T04:46:11.980Z,99110.69
2023-01-13T04:51:13.572Z,99091.31
2023-01-13T04:56:15.134Z,99066.75
2023-01-13T05:01:16.854Z,99097.50
2023-01-13T05:06:18.741Z,99014.00
2023-01-13T05:11:39.003Z,99051.53
2023-01-13T05:16:59.263Z,99095.88
2023-01-13T05:22:20.351Z,99074.25
2023-01-13T05:27:22.220Z,99030.75
2023-01-13T05:32:24.756Z,99087.25
2023-01-13T05:37:27.741Z,99087.28
2023-01-13T05:42:48.001Z,99025.72
2023-01-13T05:47:50.140Z,99014.97
2023-01-13T05:52:51.806Z,99086.53
2023-01-13T05:57:53.358Z,99020.88
2023-01-13T06:02:55.054Z,99086.63
2023-01-13T06:08:01.405Z,99054.47
2023-01-13T06:13:04.362Z,99071.06
2023-01-13T06:18:06.092Z,99044.56
2023-01-13T06:23:09.792Z,99058.59
2023-01-13T06:28:11.429Z,99076.31
2023-01-13T06:33:24.230Z,99052.88
2023-01-13T06:38:28.814Z,99046.25
2023-01-13T06:43:30.523Z,99084.56
2023-01-13T06:48:35.066Z,99075.28
2023-01-13T06:53:36.730Z,99086.81
2023-01-13T06:58:38.443Z,99093.69
2023-01-13T07:03:40.797Z,99059.44
2023-01-13T07:08:42.456Z,99061.19
2023-01-13T07:14:02.645Z,99090.59
2023-01-13T07:19:04.327Z,99104.75
2023-01-13T07:24:06.221Z,99155.75
2023-01-13T07:29:07.910Z,99162.34
2023-01-13T07:34:09.556Z,99193.13
2023-01-13T07:39:11.234Z,99200.34
2023-01-13T07:44:12.960Z,99178.28
2023-01-13T07:49:14.653Z,99185.53
2023-01-13T07:54:17.155Z,99140.81
2023-01-13T07:59:18.734Z,99146.19
2023-01-13T08:04:20.403Z,99165.75
2023-01-13T08:09:22.041Z,99153.03
2023-01-13T08:14:23.638Z,99215.19
2023-01-13T08:19:25.310Z,99207.56
2023-01-13T08:24:26.937Z,99186.41
2023-01-13T08:29:28.552Z,99199.09
2023-01-13T08:34:30.196Z,99210.88
2023-01-13T08:39:31.844Z,99227.00
2023-01-13T08:44:33.508Z,99249.06
2023-01-13T08:49:35.166Z,99234.00
2023-01-13T08:54:39.225Z,99311.63
2023-01-13T08:59:41.229Z,99260.78
2023-01-13T09:04:43.008Z,99281.34
2023-01-13T09:09:45.058Z,99286.31
2023-01-13T09:14:47.060Z,99285.19
2023-01-13T09:19:49.507Z,99327.81
2023-01-13T09:24:51.193Z,99300.88
2023-01-13T09:29:52.928Z,99311.63
2023-01-13T09:35:00.641Z,99299.38
2023-01-13T09:40:04.922Z,99311.91
2023-01-13T09:45:17.626Z,99348.88
2023-01-13T09:50:44.973Z,99327.31
2023-01-13T09:55:46.935Z,99345.84
2023-01-13T10:01:03.833Z,99395.38
2023-01-13T10:06:30.789Z,99334.44
2023-01-13T10:11:59.181Z,99411.94
2023-01-13T10:17:15.963Z,99383.50
2023-01-13T10:22:38.792Z,99327.63
2023-01-13T10:27:40.941Z,99378.31
2023-01-13T10:32:46.409Z,99353.97
2023-01-13T10:37:57.361Z,99360.97
2023-01-13T10:43:08.710Z,99362.34
2023-01-13T10:48:15.056Z,99352.69
2023-01-13T10:53:25.497Z,99392.69
2023-01-13T10:58:28.217Z,99376.59
2023-01-13T11:06:31.157Z,99416.16
2023-01-13T11:11:45.589Z,99452.59
2023-01-13T11:16:53.874Z,99393.72
2023-01-13T11:22:07.468Z,99433.44
2023-01-13T11:27:14.551Z,99392.00
2023-01-13T11:32:21.863Z,99396.63
2023-01-13T11:37:28.579Z,99387.81
2023-01-13T11:42:55.955Z,99366.34
2023-01-13T11:48:00.500Z,99303.50
2023-01-13T11:53:05.507Z,99419.47
2023-01-13T11:58:07.032Z,99409.66
2023-01-13T12:03:30.940Z,99408.81
2023-01-13T12:08:58.104Z,99434.41
2023-01-13T12:14:20.320Z,99421.63
2023-01-13T12:19:28.206Z,99399.78
2023-01-13T12:24:35.744Z,99418.75
2023-01-13T12:29:38.934Z,99472.75
2023-01-13T12:35:00.122Z,99483.13
2023-01-13T12:40:25.577Z,99481.75
2023-01-13T12:45:30.293Z,99480.75
2023-01-13T12:50:32.015Z,99456.16
2023-01-13T12:55:36.093Z,99473.16
2023-01-13T13:00:56.923Z,99450.28
2023-01-13T13:06:03.657Z,99436.44
2023-01-13T13:11:37.122Z,99488.22
2023-01-13T13:16:52.591Z,99420.03
2023-01-13T13:22:12.421Z,99500.72
2023-01-13T13:27:18.093Z,99424.44
2023-01-13T13:32:22.297Z,99500.63
2023-01-13T13:37:59.065Z,99464.44
2023-01-13T13:43:19.231Z,99473.69
2023-01-13T13:48:27.153Z,99491.59
2023-01-13T13:53:34.506Z,99538.00
2023-01-13T13:58:37.292Z,99558.13
2023-01-13T14:03:40.312Z,99572.06
2023-01-13T14:08:50.198Z,99619.09
2023-01-13T14:14:06.504Z,99567.84
2023-01-13T14:19:26.401Z,99556.63
2023-01-13T14:24:28.796Z,99562.41
2023-01-13T14:29:30.526Z,99570.38
2023-01-13T14:34:33.503Z,99570.69
2023-01-13T14:39:41.075Z,99601.78
2023-01-13T14:44:47.908Z,99581.66
2023-01-13T14:50:22.021Z,99574.50
2023-01-13T14:55:27.185Z,99626.59
2023-01-13T15:00:28.807Z,99626.38
2023-01-13T15:05:36.000Z,99669.19
2023-01-13T15:10:55.440Z,99479.28
2023-01-13T15:15:59.396Z,99560.25
2023-01-13T15:21:01.178Z,99622.56
2023-01-13T15:26:03.453Z,99685.22
2023-01-13T15:31:05.305Z,99669.13
2023-01-13T15:36:21.014Z,99657.16
2023-01-13T15:41:41.944Z,99708.91
2023-01-13T15:46:44.321Z,99692.69
2023-01-13T15:51:46.043Z,99676.81
2023-01-13T15:56:48.407Z,99693.47
2023-01-13T16:01:50.293Z,99726.94
2023-01-13T16:06:52.041Z,99659.03
2023-01-13T16:11:53.905Z,99675.03
2023-01-13T16:16:55.643Z,99675.19
2023-01-13T16:21:59.829Z,99733.22
2023-01-13T16:27:01.532Z,99732.44
2023-01-13T16:32:03.219Z,99771.75
2023-01-13T16:37:06.579Z,99747.31
2023-01-13T16:42:08.221Z,99739.69
2023-01-13T16:47:14.664Z,99747.03
2023-01-13T16:52:16.340Z,99762.84
2023-01-13T16:57:18.092Z,99724.06
2023-01-13T17:02:21.055Z,99809.69
2023-01-13T17:07:22.914Z,99799.22
2023-01-13T17:12:24.660Z,99807.56
2023-01-13T17:17:28.099Z,99778.63
2023-01-13T17:22:30.905Z,99788.69
2023-01-13T17:27:32.692Z,99781.88
2023-01-13T17:32:34.440Z,99869.25
2023-01-13T17:37:36.162Z,99841.97
2023-01-13T17:42:37.773Z,99902.19
2023-01-13T17:47:39.465Z,99923.84
2023-01-13T17:52:41.141Z,99948.19
2023-01-13T17:57:42.757Z,99903.38
2023-01-13T18:02:44.436Z,99929.53
2023-01-13T18:07:46.146Z,99959.06
2023-01-13T18:12:47.748Z,99962.72
2023-01-13T18:17:49.425Z,99962.78
2023-01-13T18:23:09.672Z,100012.06
2023-01-13T18:28:11.449Z,99993.03
2023-01-13T18:33:13.165Z,99992.53
2023-01-13T18:38:24.468Z,100039.38
2023-01-13T18:43:26.188Z,99992.72
2023-01-13T18:48:27.914Z,99990.88
2023-01-13T18:53:29.717Z,99837.06
2023-01-13T18:58:33.156Z,99993.53
2023-01-13T19:03:34.898Z,100000.38
2023-01-13T19:08:36.790Z,99945.22
2023-01-13T19:13:38.467Z,99991.25
2023-01-13T19:18:40.266Z,99955.81
2023-01-13T19:23:42.052Z,99964.50
2023-01-13T19:28:43.983Z,99995.50
2023-01-13T19:33:45.735Z,100005.66
2023-01-13T19:38:47.477Z,100031.66
2023-01-13T19:44:07.703Z,99920.50
2023-01-13T19:49:10.477Z,100012.53
2023-01-13T19:54:12.130Z,100000.53
2023-01-13T19:59:13.898Z,100029.72
2023-01-13T20:04:18.429Z,100081.38
2023-01-13T20:09:20.171Z,100005.66
2023-01-13T20:14:23.476Z,100072.53
2023-01-13T20:19:25.113Z,100023.66
2023-01-13T20:24:26.843Z,100046.25
2023-01-13T20:29:28.852Z,100069.44
2023-01-13T20:34:30.563Z,100089.22
2023-01-13T20:39:33.023Z,100088.91
2023-01-13T20:44:35.050Z,100064.63
2023-01-13T20:49:37.270Z,100082.31
2023-01-13T20:54:40.685Z,100097.63
2023-01-13T20:59:42.533Z,100040.72
2023-01-13T21:04:44.254Z,100103.09
2023-01-13T21:09:45.970Z,100111.78
2023-01-13T21:15:06.194Z,100065.41
2023-01-13T21:20:13.205Z,100114.03
2023-01-13T21:25:15.838Z,100122.44
2023-01-13T21:30:18.127Z,100141.81
2023-01-13T21:35:19.824Z,100094.13
2023-01-13T21:40:21.486Z,100104.72
2023-01-13T21:45:42.069Z,100164.25
2023-01-13T21:50:45.131Z,100135.72
2023-01-13T21:55:52.373Z,100123.84
2023-01-13T22:00:54.242Z,100148.22
2023-01-13T22:05:56.538Z,100183.94
2023-01-13T22:10:58.651Z,100170.75
2023-01-13T22:16:04.509Z,100161.72
2023-01-13T22:21:06.657Z,100137.50
2023-01-13T22:26:08.911Z,100182.94
2023-01-13T22:31:12.689Z,100137.72
2023-01-13T22:36:15.612Z,100213.78
2023-01-13T22:41:17.248Z,100207.97
2023-01-13T22:46:18.957Z,100219.38
2023-01-13T22:51:22.786Z,100225.44
2023-01-13T22:56:26.291Z,100154.69
2023-01-13T23:01:30.256Z,100185.94
2023-01-13T23:06:33.985Z,100206.81
2023-01-13T23:11:36.256Z,100169.09
2023-01-13T23:16:39.639Z,100193.09
2023-01-13T23:21:41.532Z,100216.66
2023-01-13T23:26:43.169Z,100218.84
2023-01-13T23:31:44.818Z,100225.34
2023-01-13T23:36:46.563Z,100200.28
2023-01-13T23:41:48.179Z,100197.47
2023-01-13T23:46:49.799Z,100217.25
2023-01-13T23:51:52.007Z,100213.97
2023-01-13T23:56:53.702Z,100206.81
